Time;durP1;ratioP1;P1;durP2;ratioP2;P2;SDS_P1;SDS_P2;PMS_P1;PMS_P2;Temp;Humidity;BMP_temperature;BMP_pressure;BME280_temperature;BME280_humidity;BME280_pressure;Samples;Min_cycle;Max_cycle;Signal;HPM_P1;HPM_P2
2022/08/03 00:01:05;;;;;;;;;;;589.40;2432.00;;;;;;5073966;28;20351;-59
2022/08/03 00:03:31;;;;;;;;;;;589.40;2432.00;;;;;;5074216;28;19928;-62
2022/08/03 00:05:56;;;;;;;;;;;589.40;2432.00;;;;;;5074371;28;19909;-59
2022/08/03 00:08:22;;;;;;;;;;;589.30;2432.00;;;;;;5074388;28;19909;-59
2022/08/03 00:10:48;;;;;;;;;;;589.40;2432.00;;;;;;5074066;28;19962;-63
2022/08/03 00:13:13;;;;;;;;;;;589.30;2432.00;;;;;;5074205;28;20022;-59
2022/08/03 00:15:40;;;;;;;;;;;589.30;2432.00;;;;;;5074232;28;19909;-63
2022/08/03 00:18:06;;;;;;;;;;;589.30;2432.00;;;;;;5073830;28;20002;-59
2022/08/03 00:20:31;;;;;;;;;;;589.30;2432.00;;;;;;5074044;28;19952;-59
2022/08/03 00:22:57;;;;;;;;;;;589.30;2432.00;;;;;;5073732;28;19917;-63
2022/08/03 00:25:22;;;;;;;;;;;589.30;2432.00;;;;;;5074156;28;20021;-59
2022/08/03 00:27:48;;;;;;;;;;;589.30;2432.00;;;;;;5073705;28;19908;-59
2022/08/03 00:30:14;;;;;;;;;;;589.30;2432.00;;;;;;5073909;28;19957;-62
2022/08/03 00:32:39;;;;;;;;;;;589.20;2432.00;;;;;;5073635;28;20375;-63
2022/08/03 00:35:05;;;;;;;;;;;589.20;2432.00;;;;;;5073670;28;19909;-59
2022/08/03 00:37:31;;;;;;;;;;;589.20;2432.00;;;;;;5073750;28;20022;-60
2022/08/03 00:39:56;;;;;;;;;;;589.20;2432.00;;;;;;5073496;28;19983;-59
2022/08/03 00:42:22;;;;;;;;;;;589.20;2432.00;;;;;;5073680;28;19924;-60
2022/08/03 00:44:47;;;;;;;;;;;589.20;2432.00;;;;;;5073572;28;20022;-61
2022/08/03 00:47:13;;;;;;;;;;;589.10;2432.00;;;;;;5073568;28;19962;-63
2022/08/03 00:49:39;;;;;;;;;;;589.10;2432.00;;;;;;5073363;28;19908;-62
2022/08/03 00:52:05;;;;;;;;;;;589.20;2432.00;;;;;;5073623;28;19908;-60
2022/08/03 00:54:31;;;;;;;;;;;589.00;2432.00;;;;;;5073640;28;19919;-59
2022/08/03 00:56:56;;;;;;;;;;;588.90;2432.00;;;;;;5073443;28;19944;-59
2022/08/03 00:59:22;;;;;;;;;;;588.90;2432.00;;;;;;5073415;28;19916;-62
2022/08/03 01:01:47;;;;;;;;;;;588.90;2432.00;;;;;;5072736;28;19921;-62
2022/08/03 01:04:13;;;;;;;;;;;588.90;2432.00;;;;;;5073384;28;19996;-63
2022/08/03 01:06:38;;;;;;;;;;;588.80;2432.00;;;;;;5072373;28;19930;-59
2022/08/03 01:09:11;;;;;;;;;;;588.80;2432.00;;;;;;5073395;28;20062;-59
2022/08/03 01:11:39;;;;;;;;;;;588.80;2432.00;;;;;;5072971;28;19955;-62
2022/08/03 01:14:16;;;;;;;;;;;588.80;2432.00;;;;;;5072961;28;20007;-62
2022/08/03 01:16:55;;;;;;;;;;;588.80;2432.00;;;;;;5073067;28;19909;-59
2022/08/03 01:19:43;;;;;;;;;;;588.80;2432.00;;;;;;5073140;28;19913;-59
2022/08/03 01:22:21;;;;;;;;;;;564.10;2432.00;;;;;;5072665;28;20366;-62
2022/08/03 01:24:52;;;;;;;;;;;564.10;2432.00;;;;;;5072701;28;20007;-62
2022/08/03 01:27:20;;;;;;;;;;;564.10;2432.00;;;;;;5072638;28;19999;-62
2022/08/03 01:29:57;;;;;;;;;;;564.10;2432.00;;;;;;5072485;28;20275;-63
2022/08/03 01:32:35;;;;;;;;;;;564.10;2432.00;;;;;;5072690;28;19916;-59
2022/08/03 01:35:07;;;;;;;;;;;564.00;2432.00;;;;;;5072726;28;19943;-60
2022/08/03 01:37:38;;;;;;;;;;;564.00;2432.00;;;;;;5072640;28;19938;-59
2022/08/03 01:40:05;;;;;;;;;;;564.00;2432.00;;;;;;5072516;28;20373;-58
2022/08/03 01:42:31;;;;;;;;;;;563.90;2432.00;;;;;;5072481;28;20655;-59
2022/08/03 01:44:57;;;;;;;;;;;563.90;2432.00;;;;;;5072454;28;19916;-63
2022/08/03 01:47:24;;;;;;;;;;;563.80;2432.00;;;;;;5072419;28;20274;-63
2022/08/03 01:49:51;;;;;;;;;;;563.80;2432.00;;;;;;5072268;28;19909;-63
2022/08/03 01:52:18;;;;;;;;;;;563.70;2432.00;;;;;;5072153;28;19909;-62
2022/08/03 01:54:45;;;;;;;;;;;563.70;2432.00;;;;;;5072299;28;19915;-61
2022/08/03 01:57:12;;;;;;;;;;;563.70;2432.00;;;;;;5072268;28;20271;-59
2022/08/03 01:59:38;;;;;;;;;;;563.70;2432.00;;;;;;5071691;28;19909;-62
2022/08/03 02:02:04;;;;;;;;;;;563.60;2432.00;;;;;;5072149;28;19927;-59
2022/08/03 02:04:30;;;;;;;;;;;563.60;2432.00;;;;;;5072148;28;20007;-59
2022/08/03 02:06:57;;;;;;;;;;;563.50;2432.00;;;;;;5071843;28;20414;-59
2022/08/03 02:09:24;;;;;;;;;;;563.50;2432.00;;;;;;5071996;28;19909;-59
2022/08/03 02:11:50;;;;;;;;;;;563.50;2432.00;;;;;;5071845;28;19908;-63
2022/08/03 02:14:16;;;;;;;;;;;563.50;2432.00;;;;;;5071889;28;20397;-62
2022/08/03 02:16:43;;;;;;;;;;;563.50;2432.00;;;;;;5071802;28;19909;-63
2022/08/03 02:19:09;;;;;;;;;;;563.50;2432.00;;;;;;5070617;28;19908;-63
2022/08/03 02:21:36;;;;;;;;;;;563.40;2432.00;;;;;;5071596;28;19931;-62
2022/08/03 02:24:03;;;;;;;;;;;563.40;2432.00;;;;;;5071727;28;19909;-59
2022/08/03 02:26:29;;;;;;;;;;;563.30;2432.00;;;;;;5071400;28;20382;-62
2022/08/03 02:28:55;;;;;;;;;;;563.30;2432.00;;;;;;5071409;28;19909;-58
2022/08/03 02:31:23;;;;;;;;;;;563.30;2432.00;;;;;;5071409;28;19923;-59
2022/08/03 02:33:52;;;;;;;;;;;563.20;2432.00;;;;;;5071352;28;19913;-63
2022/08/03 02:36:30;;;;;;;;;;;563.20;2432.00;;;;;;5071446;28;19908;-59
2022/08/03 02:38:58;;;;;;;;;;;563.20;2432.00;;;;;;5071282;28;20270;-62
2022/08/03 02:41:26;;;;;;;;;;;563.20;2432.00;;;;;;5071478;28;19952;-63
2022/08/03 02:43:53;;;;;;;;;;;563.60;2432.00;;;;;;5071410;28;19973;-63
2022/08/03 02:46:20;;;;;;;;;;;538.50;2406.40;;;;;;5071154;28;19915;-62
2022/08/03 02:48:47;;;;;;;;;;;538.50;2406.40;;;;;;5071049;28;19915;-63
2022/08/03 02:51:13;;;;;;;;;;;538.50;2406.40;;;;;;5071305;28;20320;-58
2022/08/03 02:53:39;;;;;;;;;;;538.40;2406.40;;;;;;5071121;28;19953;-61
2022/08/03 02:56:05;;;;;;;;;;;538.40;2406.40;;;;;;5071222;28;19908;-62
2022/08/03 02:58:32;;;;;;;;;;;538.50;2406.40;;;;;;5071271;28;19992;-64
2022/08/03 03:00:58;;;;;;;;;;;538.50;2406.40;;;;;;5070865;28;19990;-65
2022/08/03 03:03:24;;;;;;;;;;;538.40;2406.40;;;;;;5071040;28;19967;-63
2022/08/03 03:05:49;;;;;;;;;;;538.40;2406.40;;;;;;5071096;28;19999;-64
2022/08/03 03:08:17;;;;;;;;;;;538.40;2406.40;;;;;;5070891;28;19950;-58
2022/08/03 03:10:43;;;;;;;;;;;538.30;2406.40;;;;;;5071037;28;20042;-59
2022/08/03 03:13:09;;;;;;;;;;;538.30;2406.40;;;;;;5071011;28;19909;-63
2022/08/03 03:15:36;;;;;;;;;;;538.30;2406.40;;;;;;5070721;28;19909;-58
2022/08/03 03:18:02;;;;;;;;;;;538.20;2406.40;;;;;;5070954;28;19916;-58
2022/08/03 03:20:29;;;;;;;;;;;538.20;2406.40;;;;;;5070725;28;19948;-64
2022/08/03 03:22:55;;;;;;;;;;;538.20;2406.40;;;;;;5070787;28;20434;-61
2022/08/03 03:25:20;;;;;;;;;;;538.20;2406.40;;;;;;5070920;28;19946;-58
2022/08/03 03:27:47;;;;;;;;;;;538.20;2406.40;;;;;;5070713;28;19909;-61
2022/08/03 03:30:13;;;;;;;;;;;538.20;2406.40;;;;;;5072118;28;19912;-62
2022/08/03 03:32:38;;;;;;;;;;;538.30;2406.40;;;;;;5074731;28;20000;-60
2022/08/03 03:35:04;;;;;;;;;;;538.20;2406.40;;;;;;5074983;28;19919;-61
2022/08/03 03:37:30;;;;;;;;;;;538.20;2406.40;;;;;;5074894;28;19916;-62
2022/08/03 03:39:55;;;;;;;;;;;538.30;2406.40;;;;;;5074682;28;19962;-58
2022/08/03 03:42:21;;;;;;;;;;;538.40;2406.40;;;;;;5074763;28;19916;-59
2022/08/03 03:44:47;;;;;;;;;;;538.50;2406.40;;;;;;5074550;28;19952;-59
2022/08/03 03:47:13;;;;;;;;;;;538.50;2406.40;;;;;;5074854;28;19934;-59
2022/08/03 03:49:38;;;;;;;;;;;538.50;2406.40;;;;;;5074599;28;19909;-63
2022/08/03 03:52:04;;;;;;;;;;;563.20;2432.00;;;;;;5074707;28;19908;-63
2022/08/03 03:54:42;;;;;;;;;;;563.30;2432.00;;;;;;5074507;28;19909;-58
2022/08/03 03:57:11;;;;;;;;;;;563.20;2432.00;;;;;;5074353;28;19913;-58
2022/08/03 03:59:38;;;;;;;;;;;563.20;2432.00;;;;;;5074099;28;19908;-62
2022/08/03 04:02:04;;;;;;;;;;;563.30;2432.00;;;;;;5074364;28;19920;-62
2022/08/03 04:12:44;;;;;;;;;;;563.30;2432.00;;;;;;5074190;28;19916;-61
2022/08/03 04:15:10;;;;;;;;;;;563.40;2432.00;;;;;;5074197;28;20062;-63
2022/08/03 04:17:36;;;;;;;;;;;563.50;2432.00;;;;;;5073836;28;19915;-58
2022/08/03 04:20:02;;;;;;;;;;;563.70;2432.00;;;;;;5074063;28;20015;-58
2022/08/03 04:22:30;;;;;;;;;;;563.60;2432.00;;;;;;5073753;28;19917;-63
2022/08/03 04:24:59;;;;;;;;;;;563.70;2432.00;;;;;;5073834;28;19914;-62
2022/08/03 04:27:27;;;;;;;;;;;563.80;2432.00;;;;;;5073701;28;19916;-62
2022/08/03 04:29:54;;;;;;;;;;;564.00;2432.00;;;;;;5073903;28;19967;-64
2022/08/03 04:32:22;;;;;;;;;;;564.00;2432.00;;;;;;5073872;28;20010;-58
2022/08/03 04:34:48;;;;;;;;;;;564.00;2432.00;;;;;;5073656;28;19915;-64
2022/08/03 04:37:16;;;;;;;;;;;564.10;2432.00;;;;;;5073962;28;19908;-63
2022/08/03 04:39:43;;;;;;;;;;;589.00;2432.00;;;;;;5073773;28;19958;-62
2022/08/03 04:42:10;;;;;;;;;;;588.80;2432.00;;;;;;5072282;28;19970;-59
2022/08/03 04:44:40;;;;;;;;;;;588.90;2432.00;;;;;;5073404;28;20278;-59
2022/08/03 04:47:06;;;;;;;;;;;589.00;2432.00;;;;;;5073264;28;20014;-59
2022/08/03 04:49:32;;;;;;;;;;;589.00;2432.00;;;;;;5073535;28;20015;-59
2022/08/03 04:51:57;;;;;;;;;;;589.10;2432.00;;;;;;5073390;28;19909;-60
2022/08/03 04:54:23;;;;;;;;;;;589.10;2432.00;;;;;;5073512;28;19915;-59
2022/08/03 04:56:49;;;;;;;;;;;589.30;2432.00;;;;;;5073201;28;19908;-63
2022/08/03 04:59:16;;;;;;;;;;;589.50;2432.00;;;;;;5073287;28;19915;-60
2022/08/03 05:01:42;;;;;;;;;;;614.50;2432.00;;;;;;5072902;28;19964;-60
2022/08/03 05:04:08;;;;;;;;;;;692.10;2201.60;;;;;;5073392;28;20001;-62
2022/08/03 05:06:33;;;;;;;;;;;768.90;1817.60;;;;;;5073462;28;19908;-59
2022/08/03 05:08:59;;;;;;;;;;;844.90;1612.80;;;;;;5073157;28;19912;-63
2022/08/03 05:11:25;;;;;;;;;;;871.20;1459.20;;;;;;5073061;28;19962;-59
2022/08/03 05:13:50;;;;;;;;;;;896.90;1382.40;;;;;;5073218;28;19998;-62
2022/08/03 05:16:16;;;;;;;;;;;922.50;1331.20;;;;;;5072978;28;19916;-62
2022/08/03 05:18:42;;;;;;;;;;;948.10;1254.40;;;;;;5072870;28;19912;-63
2022/08/03 05:21:08;;;;;;;;;;;;;;;;;;5072713;28;19908;-64
2022/08/03 05:23:33;;;;;;;;;;;973.70;1228.80;;;;;;5073031;28;19970;-65
2022/08/03 05:25:59;;;;;;;;;;;999.20;1177.60;;;;;;5072715;28;19908;-63
2022/08/03 05:28:24;;;;;;;;;;;1024.70;1126.40;;;;;;5072596;28;20004;-59
2022/08/03 05:30:50;;;;;;;;;;;1049.70;1126.40;;;;;;5072800;28;19923;-60
2022/08/03 05:33:16;;;;;;;;;;;1075.50;1075.20;;;;;;5072484;28;19912;-61
2022/08/03 05:35:41;;;;;;;;;;;1076.10;1024.00;;;;;;5072765;28;20378;-59
2022/08/03 05:38:07;;;;;;;;;;;1101.10;1049.60;;;;;;5072783;28;19908;-60
2022/08/03 05:40:32;;;;;;;;;;;1100.90;1049.60;;;;;;5072712;28;20335;-59
2022/08/03 05:42:58;;;;;;;;;;;1101.10;1049.60;;;;;;5072403;28;20264;-65
2022/08/03 05:45:24;;;;;;;;;;;1101.20;1024.00;;;;;;5072622;28;20377;-59
2022/08/03 05:47:49;;;;;;;;;;;1126.60;1024.00;;;;;;5072318;28;19909;-66
2022/08/03 05:50:16;;;;;;;;;;;1127.30;998.40;;;;;;5072273;28;19909;-66
2022/08/03 05:52:42;;;;;;;;;;;1127.10;998.40;;;;;;5072322;28;19934;-60
2022/08/03 05:55:08;;;;;;;;;;;1152.10;998.40;;;;;;5072247;28;19962;-69
2022/08/03 05:57:33;;;;;;;;;;;1152.50;947.20;;;;;;5072295;28;20007;-62
2022/08/03 06:00:00;;;;;;;;;;;1178.10;921.60;;;;;;5071820;28;19952;-67
2022/08/03 06:02:26;;;;;;;;;;;1178.10;921.60;;;;;;5071753;28;19920;-61
2022/08/03 06:04:52;;;;;;;;;;;1178.00;947.20;;;;;;5072015;28;19955;-61
2022/08/03 06:07:17;;;;;;;;;;;1178.50;896.00;;;;;;5072025;28;19955;-68
2022/08/03 06:09:43;;;;;;;;;;;1178.30;896.00;;;;;;5072412;28;20240;-60
2022/08/03 06:12:08;;;;;;;;;;;1203.60;921.60;;;;;;5071662;28;19973;-67
2022/08/03 06:14:34;;;;;;;;;;;1203.80;896.00;;;;;;5070755;28;19909;-60
2022/08/03 06:16:59;;;;;;;;;;;1203.30;921.60;;;;;;5071853;28;19995;-58
2022/08/03 06:19:26;;;;;;;;;;;1203.80;896.00;;;;;;5071558;28;19908;-60
2022/08/03 06:21:51;;;;;;;;;;;1203.90;870.40;;;;;;5071655;28;19915;-68
2022/08/03 06:24:17;;;;;;;;;;;1204.10;870.40;;;;;;5071727;28;19916;-68
2022/08/03 06:26:42;;;;;;;;;;;1228.80;896.00;;;;;;5071688;28;19909;-61
2022/08/03 06:29:08;;;;;;;;;;;1203.80;896.00;;;;;;5071424;28;19908;-67
2022/08/03 06:31:34;;;;;;;;;;;1228.90;896.00;;;;;;5070680;28;20011;-61
2022/08/03 06:34:00;;;;;;;;;;;1228.90;896.00;;;;;;5070794;28;20263;-62
2022/08/03 06:36:30;;;;;;;;;;;1228.80;896.00;;;;;;5070890;28;19916;-64
2022/08/03 06:38:58;;;;;;;;;;;1229.40;870.40;;;;;;5071080;28;19908;-66
2022/08/03 06:41:25;;;;;;;;;;;1229.70;870.40;;;;;;5071142;28;19909;-64
2022/08/03 06:43:50;;;;;;;;;;;1229.50;870.40;;;;;;5071246;28;19916;-65
2022/08/03 06:46:16;;;;;;;;;;;1255.10;844.80;;;;;;5070846;28;19962;-67
2022/08/03 06:48:41;;;;;;;;;;;1255.30;844.80;;;;;;5070844;28;19909;-68
2022/08/03 06:51:07;;;;;;;;;;;1255.10;844.80;;;;;;5070755;28;20003;-58
2022/08/03 06:53:33;;;;;;;;;;;1280.40;819.20;;;;;;5071160;28;19916;-57
2022/08/03 06:55:58;;;;;;;;;;;1280.00;844.80;;;;;;5070697;28;20406;-60
2022/08/03 06:58:24;;;;;;;;;;;1255.10;844.80;;;;;;5070994;28;19909;-58
2022/08/03 07:00:49;;;;;;;;;;;1280.50;819.20;;;;;;5070538;28;19974;-65
2022/08/03 07:03:15;;;;;;;;;;;1280.70;819.20;;;;;;5070340;28;20011;-66
2022/08/03 07:05:42;;;;;;;;;;;1280.50;819.20;;;;;;5070115;28;19920;-65
2022/08/03 07:08:07;;;;;;;;;;;1306.00;793.60;;;;;;5070467;28;20283;-61
2022/08/03 07:10:33;;;;;;;;;;;1306.50;768.00;;;;;;5068093;28;19912;-61
2022/08/03 07:12:59;;;;;;;;;;;1305.70;793.60;;;;;;5070461;28;19912;-57
2022/08/03 07:15:24;;;;;;;;;;;1306.30;793.60;;;;;;5070512;28;19908;-63
2022/08/03 07:17:50;;;;;;;;;;;1331.40;793.60;;;;;;5070510;28;19909;-61
2022/08/03 07:20:17;;;;;;;;;;;1356.80;793.60;;;;;;5070310;28;20324;-62
2022/08/03 07:22:43;;;;;;;;;;;1331.90;768.00;;;;;;5070515;28;19924;-59
2022/08/03 07:25:08;;;;;;;;;;;1306.20;793.60;;;;;;5070296;28;19916;-59
2022/08/03 07:27:34;;;;;;;;;;;1331.40;793.60;;;;;;5070618;28;19962;-68
2022/08/03 07:30:00;;;;;;;;;;;1331.90;768.00;;;;;;5070504;28;19919;-68
2022/08/03 07:32:27;;;;;;;;;;;1356.80;793.60;;;;;;5070064;28;20337;-61
2022/08/03 07:34:52;;;;;;;;;;;1331.40;793.60;;;;;;5070775;28;19909;-61
2022/08/03 07:37:18;;;;;;;;;;;1356.80;768.00;;;;;;5070554;28;20394;-61
2022/08/03 07:39:44;;;;;;;;;;;1357.20;742.40;;;;;;5070948;28;19908;-69
2022/08/03 07:42:10;;;;;;;;;;;1331.90;742.40;;;;;;5070871;28;19912;-68
2022/08/03 07:44:35;;;;;;;;;;;1356.90;742.40;;;;;;5070560;28;19919;-68
2022/08/03 07:47:01;;;;;;;;;;;1331.70;742.40;;;;;;5070685;28;19913;-61
2022/08/03 07:49:27;;;;;;;;;;;1331.60;768.00;;;;;;5070542;28;19950;-62
2022/08/03 07:54:36;;;;;;;;;;;1356.90;768.00;;;;;;5070820;28;19916;-61
2022/08/03 07:57:02;;;;;;;;;;;1331.70;742.40;;;;;;5070805;28;19908;-61
2022/08/03 07:59:27;;;;;;;;;;;1331.20;768.00;;;;;;5070125;28;19924;-60
2022/08/03 08:01:53;;;;;;;;;;;1357.10;742.40;;;;;;5070447;28;19929;-67
2022/08/03 08:04:18;;;;;;;;;;;1357.20;742.40;;;;;;5070315;28;20335;-70
2022/08/03 08:06:44;;;;;;;;;;;1356.80;768.00;;;;;;5070537;28;19951;-63
2022/08/03 08:09:10;;;;;;;;;;;1280.90;793.60;;;;;;5070691;28;19909;-70
2022/08/03 08:11:36;;;;;;;;;;;1331.70;742.40;;;;;;5070330;28;20278;-69
2022/08/03 08:14:02;;;;;;;;;;;1331.90;742.40;;;;;;5070406;28;19916;-62
2022/08/03 08:16:28;;;;;;;;;;;1331.60;742.40;;;;;;5072052;28;19916;-68
2022/08/03 08:18:54;;;;;;;;;;;1331.90;742.40;;;;;;5074122;28;20286;-68
2022/08/03 08:21:19;;;;;;;;;;;1331.40;768.00;;;;;;5074075;28;19909;-61
2022/08/03 08:23:45;;;;;;;;;;;1331.20;768.00;;;;;;5074014;28;19919;-61
2022/08/03 08:26:11;;;;;;;;;;;1306.50;742.40;;;;;;5074066;28;19920;-60
2022/08/03 08:28:36;;;;;;;;;;;1305.90;768.00;;;;;;5073944;28;20309;-67
2022/08/03 08:31:02;;;;;;;;;;;1280.40;793.60;;;;;;5073832;28;19912;-60
2022/08/03 08:33:27;;;;;;;;;;;1254.40;819.20;;;;;;5073628;28;19966;-67
2022/08/03 08:35:53;;;;;;;;;;;1203.40;844.80;;;;;;5073799;28;19908;-65
2022/08/03 08:38:19;;;;;;;;;;;1126.40;972.80;;;;;;5073861;28;20277;-67
2022/08/03 08:40:44;;;;;;;;;;;1101.00;947.20;;;;;;5073520;28;19908;-61
2022/08/03 08:43:10;;;;;;;;;;;1050.10;998.40;;;;;;5073753;28;19941;-68
2022/08/03 08:45:36;;;;;;;;;;;1024.30;998.40;;;;;;5073536;28;19938;-61
2022/08/03 08:48:02;;;;;;;;;;;973.40;1049.60;;;;;;5073777;28;19909;-67
2022/08/03 08:50:28;;;;;;;;;;;973.10;1075.20;;;;;;5073400;28;19908;-60
2022/08/03 08:52:54;;;;;;;;;;;973.20;1075.20;;;;;;5073500;28;19920;-64
2022/08/03 08:55:21;;;;;;;;;;;973.20;1075.20;;;;;;5073370;28;19908;-67
2022/08/03 08:57:48;;;;;;;;;;;972.80;1126.40;;;;;;5073549;28;19908;-59
2022/08/03 09:00:14;;;;;;;;;;;973.00;1100.80;;;;;;5073306;28;19920;-68
2022/08/03 09:02:43;;;;;;;;;;;972.80;1126.40;;;;;;5073329;28;19919;-68
2022/08/03 09:05:12;;;;;;;;;;;947.90;1100.80;;;;;;5073093;28;20346;-66
2022/08/03 09:07:38;;;;;;;;;;;947.30;1100.80;;;;;;5073131;28;20244;-60
2022/08/03 09:10:05;;;;;;;;;;;922.50;1075.20;;;;;;5073103;28;19954;-69
2022/08/03 09:12:35;;;;;;;;;;;921.80;1126.40;;;;;;5073048;28;19947;-69
2022/08/03 09:15:15;;;;;;;;;;;922.30;1100.80;;;;;;5073093;28;19916;-64
2022/08/03 09:17:40;;;;;;;;;;;896.80;1126.40;;;;;;5073062;28;19915;-59
2022/08/03 09:20:08;;;;;;;;;;;921.70;1100.80;;;;;;5072624;28;19908;-67
2022/08/03 09:22:33;;;;;;;;;;;922.00;1075.20;;;;;;5073094;28;20007;-68
2022/08/03 09:25:00;;;;;;;;;;;922.00;1075.20;;;;;;5070432;28;19995;-66
2022/08/03 09:27:25;;;;;;;;;;;922.30;1100.80;;;;;;5070229;28;19973;-61
2022/08/03 09:29:52;;;;;;;;;;;922.10;1075.20;;;;;;5070697;28;19917;-61
2022/08/03 09:32:19;;;;;;;;;;;922.00;1075.20;;;;;;5070377;28;20264;-63
2022/08/03 09:34:45;;;;;;;;;;;922.00;1075.20;;;;;;5070404;28;19908;-63
2022/08/03 09:37:15;;;;;;;;;;;921.90;1075.20;;;;;;5070044;28;20580;-61
2022/08/03 09:39:40;;;;;;;;;;;921.80;1075.20;;;;;;5070785;28;19952;-59
2022/08/03 09:42:07;;;;;;;;;;;896.90;1100.80;;;;;;5070401;28;20001;-63
2022/08/03 09:44:37;;;;;;;;;;;896.20;1075.20;;;;;;5070504;28;20251;-60
2022/08/03 09:47:03;;;;;;;;;;;871.30;1100.80;;;;;;5070455;28;19909;-62
2022/08/03 09:49:29;;;;;;;;;;;870.90;1126.40;;;;;;5071288;28;19909;-64
2022/08/03 09:51:54;;;;;;;;;;;870.90;1100.80;;;;;;5072348;28;19908;-64
2022/08/03 09:54:30;;;;;;;;;;;871.30;1100.80;;;;;;5072330;28;19912;-65
2022/08/03 09:56:56;;;;;;;;;;;871.30;1075.20;;;;;;5072127;28;19908;-59
2022/08/03 09:59:24;;;;;;;;;;;896.40;1126.40;;;;;;5072282;28;20354;-68
2022/08/03 10:01:49;;;;;;;;;;;896.20;1075.20;;;;;;5071701;28;19920;-64
2022/08/03 10:04:15;;;;;;;;;;;871.20;1126.40;;;;;;5071719;28;19954;-65
2022/08/03 10:06:45;;;;;;;;;;;871.20;1126.40;;;;;;5072186;28;20004;-65
2022/08/03 10:09:12;;;;;;;;;;;871.20;1126.40;;;;;;5072050;28;19908;-69
2022/08/03 10:11:38;;;;;;;;;;;870.50;1152.00;;;;;;5071912;28;20297;-66
2022/08/03 10:14:04;;;;;;;;;;;871.10;1126.40;;;;;;5071842;28;19923;-59
2022/08/03 10:16:38;;;;;;;;;;;871.30;1126.40;;;;;;5071825;28;19916;-67
2022/08/03 10:19:04;;;;;;;;;;;896.00;1100.80;;;;;;5071788;28;20266;-66
2022/08/03 10:21:34;;;;;;;;;;;871.30;1100.80;;;;;;5072188;28;19990;-67
2022/08/03 10:24:07;;;;;;;;;;;896.00;1126.40;;;;;;5071768;28;19912;-69
2022/08/03 10:26:33;;;;;;;;;;;896.20;1100.80;;;;;;5071752;28;19908;-64
2022/08/03 10:29:01;;;;;;;;;;;896.00;1126.40;;;;;;5071504;28;19909;-60
2022/08/03 10:31:32;;;;;;;;;;;896.10;1100.80;;;;;;5071728;28;20003;-65
2022/08/03 10:33:58;;;;;;;;;;;896.20;1126.40;;;;;;5071455;28;19920;-63
2022/08/03 10:36:25;;;;;;;;;;;896.30;1100.80;;;;;;5071673;28;19908;-60
2022/08/03 10:38:52;;;;;;;;;;;896.50;1100.80;;;;;;5071329;28;19958;-67
2022/08/03 10:41:19;;;;;;;;;;;896.50;1075.20;;;;;;5070776;28;19999;-66
2022/08/03 10:43:47;;;;;;;;;;;871.30;1049.60;;;;;;5071233;28;19952;-64
2022/08/03 10:46:14;;;;;;;;;;;871.10;1100.80;;;;;;5071282;28;20381;-68
2022/08/03 10:48:40;;;;;;;;;;;870.80;1126.40;;;;;;5071475;28;19909;-58
2022/08/03 10:51:06;;;;;;;;;;;845.70;1152.00;;;;;;5071121;28;20007;-60
2022/08/03 10:53:36;;;;;;;;;;;845.70;1152.00;;;;;;5071321;28;19921;-60
2022/08/03 10:58:50;;;;;;;;;;;870.70;1152.00;;;;;;5071313;28;20004;-67
2022/08/03 11:01:17;;;;;;;;;;;845.60;1177.60;;;;;;5070655;28;19920;-68
2022/08/03 11:03:51;;;;;;;;;;;870.40;1177.60;;;;;;5071273;28;19920;-66
2022/08/03 11:06:18;;;;;;;;;;;845.70;1152.00;;;;;;5070804;28;20327;-68
2022/08/03 11:08:47;;;;;;;;;;;870.40;1177.60;;;;;;5071132;28;19953;-65
2022/08/03 11:11:15;;;;;;;;;;;845.40;1152.00;;;;;;5071096;28;19944;-65
2022/08/03 11:13:55;;;;;;;;;;;845.00;1177.60;;;;;;5071041;28;20018;-66
2022/08/03 11:16:22;;;;;;;;;;;845.20;1177.60;;;;;;5071290;28;19973;-60
2022/08/03 11:18:56;;;;;;;;;;;845.60;1152.00;;;;;;5070898;28;19916;-63
2022/08/03 11:21:42;;;;;;;;;;;845.70;1126.40;;;;;;5070120;28;20357;-64
2022/08/03 11:24:08;;;;;;;;;;;870.50;1152.00;;;;;;5069638;28;19909;-65
2022/08/03 11:26:34;;;;;;;;;;;845.70;1126.40;;;;;;5070220;28;19984;-63
2022/08/03 11:29:18;;;;;;;;;;;845.60;1126.40;;;;;;5070799;28;19916;-65
2022/08/03 11:31:45;;;;;;;;;;;870.50;1126.40;;;;;;5070876;28;19912;-62
2022/08/03 11:34:11;;;;;;;;;;;845.40;1152.00;;;;;;5070685;28;19924;-65
2022/08/03 11:36:57;;;;;;;;;;;845.50;1126.40;;;;;;5070531;28;19908;-62
2022/08/03 11:39:36;;;;;;;;;;;845.50;1152.00;;;;;;5070723;28;20377;-65
2022/08/03 11:42:22;;;;;;;;;;;845.70;1152.00;;;;;;5070763;28;20358;-65
2022/08/03 11:44:55;;;;;;;;;;;870.60;1126.40;;;;;;5069877;28;19928;-66
2022/08/03 11:47:21;;;;;;;;;;;870.90;1100.80;;;;;;5070216;28;19951;-66
2022/08/03 11:49:48;;;;;;;;;;;870.50;1152.00;;;;;;5070304;28;20516;-66
2022/08/03 11:52:14;;;;;;;;;;;845.30;1152.00;;;;;;5073662;28;19921;-61
2022/08/03 11:54:40;;;;;;;;;;;845.40;1177.60;;;;;;5074522;28;19919;-64
2022/08/03 11:57:05;;;;;;;;;;;845.50;1177.60;;;;;;5074442;28;19912;-65
2022/08/03 11:59:36;;;;;;;;;;;845.70;1152.00;;;;;;5074463;28;19919;-63
2022/08/03 12:02:12;;;;;;;;;;;845.70;1152.00;;;;;;5074721;28;19931;-61
2022/08/03 12:04:50;;;;;;;;;;;845.70;1177.60;;;;;;5074166;28;19909;-60
2022/08/03 12:07:16;;;;;;;;;;;870.60;1177.60;;;;;;5074070;28;19908;-64
2022/08/03 12:09:43;;;;;;;;;;;870.90;1152.00;;;;;;5074489;28;19915;-64
2022/08/03 12:12:08;;;;;;;;;;;870.50;1152.00;;;;;;5073978;28;19916;-62
2022/08/03 12:14:34;;;;;;;;;;;870.50;1152.00;;;;;;5074193;28;19913;-63
2022/08/03 12:17:00;;;;;;;;;;;870.40;1152.00;;;;;;5074158;28;20000;-62
2022/08/03 12:19:25;;;;;;;;;;;870.90;1126.40;;;;;;5072610;28;19920;-63
2022/08/03 12:21:51;;;;;;;;;;;870.50;1100.80;;;;;;5072769;28;19917;-63
2022/08/03 12:24:16;;;;;;;;;;;870.90;1126.40;;;;;;5072553;28;20472;-62
2022/08/03 12:26:42;;;;;;;;;;;871.10;1126.40;;;;;;5072995;28;20384;-59
2022/08/03 12:29:15;;;;;;;;;;;871.00;1126.40;;;;;;5072331;28;19963;-60
2022/08/03 12:31:41;;;;;;;;;;;870.60;1126.40;;;;;;5072481;28;19908;-60
2022/08/03 12:34:08;;;;;;;;;;;870.60;1126.40;;;;;;5072456;28;20011;-60
2022/08/03 12:36:34;;;;;;;;;;;870.70;1126.40;;;;;;5072777;28;19909;-63
2022/08/03 12:39:05;;;;;;;;;;;870.40;1100.80;;;;;;5072537;28;19909;-61
2022/08/03 12:41:34;;;;;;;;;;;870.40;1100.80;;;;;;5072587;28;19999;-61
2022/08/03 12:44:02;;;;;;;;;;;870.60;1100.80;;;;;;5072484;28;19919;-62
2022/08/03 12:46:32;;;;;;;;;;;870.50;1126.40;;;;;;5072459;28;19908;-63
2022/08/03 12:49:03;;;;;;;;;;;870.50;1126.40;;;;;;5072469;28;19912;-64
2022/08/03 12:51:29;;;;;;;;;;;870.50;1126.40;;;;;;5072492;28;20316;-65
2022/08/03 12:53:55;;;;;;;;;;;845.70;1126.40;;;;;;5072292;28;19970;-60
2022/08/03 12:56:21;;;;;;;;;;;845.70;1126.40;;;;;;5072374;28;19919;-61
2022/08/03 12:58:47;;;;;;;;;;;845.50;1126.40;;;;;;5072397;28;19908;-63
2022/08/03 13:01:12;;;;;;;;;;;845.20;1152.00;;;;;;5072206;28;19920;-61
2022/08/03 13:03:39;;;;;;;;;;;845.20;1152.00;;;;;;5071277;28;19917;-64
2022/08/03 13:06:10;;;;;;;;;;;845.70;1152.00;;;;;;5072180;28;19955;-63
2022/08/03 13:08:35;;;;;;;;;;;870.50;1177.60;;;;;;5072125;28;20364;-61
2022/08/03 13:11:16;;;;;;;;;;;870.70;1152.00;;;;;;5072175;28;20054;-63
2022/08/03 13:13:42;;;;;;;;;;;870.60;1100.80;;;;;;5072348;28;20290;-60
2022/08/03 13:16:07;;;;;;;;;;;870.70;1126.40;;;;;;5072154;28;19909;-60
2022/08/03 13:18:33;;;;;;;;;;;871.00;1152.00;;;;;;5072189;28;20278;-63
2022/08/03 13:20:59;;;;;;;;;;;870.80;1126.40;;;;;;5071963;28;19908;-61
2022/08/03 13:23:24;;;;;;;;;;;870.70;1152.00;;;;;;5071766;28;20425;-61
2022/08/03 13:25:50;;;;;;;;;;;870.70;1126.40;;;;;;5071943;28;19912;-61
2022/08/03 13:28:15;;;;;;;;;;;870.60;1152.00;;;;;;5071673;28;20287;-60
2022/08/03 13:30:41;;;;;;;;;;;870.60;1126.40;;;;;;5071816;28;19917;-63
2022/08/03 13:33:07;;;;;;;;;;;870.60;1126.40;;;;;;5071496;28;19999;-64
2022/08/03 13:35:33;;;;;;;;;;;845.70;1126.40;;;;;;5072001;28;19978;-61
2022/08/03 13:37:58;;;;;;;;;;;845.50;1126.40;;;;;;5071515;28;19909;-64
2022/08/03 13:40:24;;;;;;;;;;;845.70;1126.40;;;;;;5071720;28;20739;-61
2022/08/03 13:42:49;;;;;;;;;;;845.70;1100.80;;;;;;5071500;28;20388;-62
2022/08/03 13:45:15;;;;;;;;;;;870.50;1126.40;;;;;;5071509;28;19908;-62
2022/08/03 13:47:40;;;;;;;;;;;870.70;1126.40;;;;;;5071638;28;19912;-60
2022/08/03 13:50:06;;;;;;;;;;;870.90;1100.80;;;;;;5071457;28;19912;-62
2022/08/03 13:52:33;;;;;;;;;;;871.00;1126.40;;;;;;5071328;28;20344;-61
2022/08/03 13:54:59;;;;;;;;;;;871.00;1126.40;;;;;;5071260;28;20696;-65